West Chester, Iowa
Current Conditions -  °F | °C
As of 4:55 PM on Friday 31 Oct 2014 (Local Time) from KAWG Reporting Station
Clear Clear  
Wind Chill: 35°   Ceiling: Unl
Heat Index: 43°   Visibility: 10mi
Dew Point: 19°   Wind: 17mph
Humidity: 39%   Direction: 340°NNW
Pressure: 30.4"   Gusts: 24mph
Location:  41.34°N, 91.82°W
Report Text: KAWG 312155Z AUTO 34015G21KT 10SM CLR 06/M07 A3040 RMK AO2
Loading
Personal Weather Stations






























Interactive Weather Map New forecast layout! Learn more

10-Day Weather Forecast

Advertisements
Track Severe Weather on mobile